createdAt,value
2023-06-21T00:00:01.768Z,96330.09
2023-06-21T00:02:29.607Z,96336.28
2023-06-21T00:06:11.993Z,96344.34
2023-06-21T00:08:39.726Z,96336.59
2023-06-21T00:11:06.617Z,96343.53
2023-06-21T00:13:33.527Z,96332.88
2023-06-21T00:16:00.458Z,96330.78
2023-06-21T00:18:27.454Z,96316.84
2023-06-21T00:20:54.355Z,96326.53
2023-06-21T00:23:21.217Z,96325.47
2023-06-21T00:25:48.111Z,96330.84
2023-06-21T00:28:15.074Z,96337.81
2023-06-21T00:30:41.979Z,96338.34
2023-06-21T00:33:08.931Z,96332.28
2023-06-21T00:35:35.850Z,96338.16
2023-06-21T00:38:02.714Z,96352.91
2023-06-21T00:40:35.127Z,96369.00
2023-06-21T00:43:05.004Z,96375.66
2023-06-21T00:45:40.313Z,96375.91
2023-06-21T00:48:08.428Z,96376.72
2023-06-21T00:50:35.599Z,96379.16
2023-06-21T00:53:02.570Z,96383.13
2023-06-21T00:55:29.541Z,96386.59
2023-06-21T00:57:58.375Z,96398.16
2023-06-21T01:00:26.802Z,96389.59
2023-06-21T01:03:00.261Z,96396.28
2023-06-21T01:05:35.635Z,96400.34
2023-06-21T01:08:36.172Z,96405.72
2023-06-21T01:11:03.403Z,96401.19
2023-06-21T01:13:46.235Z,96410.84
2023-06-21T01:16:16.510Z,96415.66
2023-06-21T01:18:47.660Z,96418.38
2023-06-21T01:21:19.817Z,96416.75
2023-06-21T01:24:14.952Z,96415.72
2023-06-21T01:27:17.677Z,96415.16
2023-06-21T01:29:48.932Z,96425.34
2023-06-21T01:32:18.338Z,96414.88
2023-06-21T01:34:46.286Z,96420.81
2023-06-21T01:37:13.187Z,96417.34
2023-06-21T01:39:40.153Z,96405.81
2023-06-21T01:42:07.582Z,96410.91
2023-06-21T01:44:34.981Z,96414.16
2023-06-21T01:47:02.632Z,96388.44
2023-06-21T01:49:31.693Z,96396.47
2023-06-21T01:51:59.905Z,96403.72
2023-06-21T01:54:28.359Z,96390.06
2023-06-21T01:57:00.828Z,96396.22
2023-06-21T01:59:30.154Z,96391.13
2023-06-21T02:02:02.404Z,96387.38
2023-06-21T02:04:31.410Z,96386.84
2023-06-21T02:06:59.819Z,96393.56
2023-06-21T02:09:27.301Z,96407.22
2023-06-21T02:11:54.525Z,96410.44
2023-06-21T02:14:21.855Z,96410.47
2023-06-21T02:16:49.434Z,96416.31
2023-06-21T02:19:16.373Z,96415.78
2023-06-21T02:21:43.303Z,96414.72
2023-06-21T02:24:10.248Z,96425.41
2023-06-21T02:26:37.189Z,96422.72
2023-06-21T02:29:04.065Z,96421.13
2023-06-21T02:31:34.095Z,96425.16
2023-06-21T02:34:01.318Z,96425.44
2023-06-21T02:36:28.382Z,96430.25
2023-06-21T02:38:56.608Z,96431.84
2023-06-21T02:41:23.639Z,96436.09
2023-06-21T02:43:50.814Z,96431.84
2023-06-21T02:46:18.921Z,96437.72
2023-06-21T02:48:45.832Z,96441.47
2023-06-21T02:51:12.707Z,96436.63
2023-06-21T02:53:39.635Z,96445.16
2023-06-21T02:56:07.081Z,96440.34
2023-06-21T02:58:34.248Z,96444.63
2023-06-21T03:01:01.157Z,96448.06
2023-06-21T03:03:28.960Z,96444.56
2023-06-21T03:05:56.341Z,96441.56
2023-06-21T03:08:23.270Z,96444.50
2023-06-21T03:10:50.164Z,96448.28
2023-06-21T03:13:17.084Z,96438.63
2023-06-21T03:15:44.017Z,96442.63
2023-06-21T03:18:11.049Z,96459.47
2023-06-21T03:20:38.132Z,96449.59
2023-06-21T03:23:05.084Z,96452.50
2023-06-21T03:25:31.968Z,96457.59
2023-06-21T03:28:00.572Z,96454.13
2023-06-21T03:32:54.751Z,96454.13
2023-06-21T03:35:21.826Z,96461.59
2023-06-21T03:37:48.949Z,96460.78
2023-06-21T03:40:15.914Z,96455.97
2023-06-21T03:42:44.469Z,96454.88
2023-06-21T03:45:12.137Z,96459.97
2023-06-21T03:47:41.272Z,96453.31
2023-06-21T03:50:09.952Z,96453.31
2023-06-21T03:52:37.535Z,96466.94
2023-06-21T03:55:06.053Z,96474.97
2023-06-21T03:57:33.196Z,96476.09
2023-06-21T04:00:00.226Z,96469.94
2023-06-21T04:02:27.223Z,96479.88
2023-06-21T04:04:54.141Z,96479.06
2023-06-21T04:07:23.244Z,96482.00
2023-06-21T04:09:50.750Z,96482.50
2023-06-21T04:12:17.705Z,96482.50
2023-06-21T04:14:44.610Z,96482.31
2023-06-21T04:17:11.530Z,96484.72
2023-06-21T04:19:38.430Z,96485.78
2023-06-21T04:22:05.768Z,96498.09
2023-06-21T04:24:32.860Z,96490.38
2023-06-21T04:27:00.040Z,96485.28
2023-06-21T04:29:27.456Z,96484.50
2023-06-21T04:31:54.542Z,96494.94
2023-06-21T04:34:21.574Z,96497.31
2023-06-21T04:36:49.183Z,96499.22
2023-06-21T04:39:19.265Z,96493.84
2023-06-21T04:41:47.418Z,96503.50
2023-06-21T04:44:18.473Z,96498.19
2023-06-21T04:46:49.065Z,96493.13
2023-06-21T04:49:17.031Z,96504.09
2023-06-21T04:51:44.632Z,96498.22
2023-06-21T04:54:11.632Z,96508.69
2023-06-21T04:56:38.666Z,96512.75
2023-06-21T04:59:05.633Z,96506.06
2023-06-21T05:01:33.784Z,96506.88
2023-06-21T05:04:00.832Z,96514.38
2023-06-21T05:06:27.737Z,96517.31
2023-06-21T05:08:54.790Z,96525.34
2023-06-21T05:11:21.758Z,96524.28
2023-06-21T05:13:48.668Z,96521.00
2023-06-21T05:16:15.582Z,96529.34
2023-06-21T05:18:43.460Z,96521.78
2023-06-21T05:21:10.561Z,96537.88
2023-06-21T05:23:37.463Z,96531.66
2023-06-21T05:26:05.381Z,96536.19
2023-06-21T05:28:32.462Z,96536.16
2023-06-21T05:30:59.557Z,96547.66
2023-06-21T05:33:26.449Z,96557.47
2023-06-21T05:35:53.361Z,96565.47
2023-06-21T05:38:20.262Z,96556.78
2023-06-21T05:40:47.279Z,96557.47
2023-06-21T05:43:14.176Z,96564.09
2023-06-21T05:45:41.074Z,96557.03
2023-06-21T05:48:08.027Z,96558.44
2023-06-21T05:50:34.957Z,96563.22
2023-06-21T05:53:01.892Z,96568.28
2023-06-21T05:55:28.767Z,96570.41
2023-06-21T05:57:55.731Z,96577.13
2023-06-21T06:00:22.761Z,96580.56
2023-06-21T06:02:49.721Z,96579.41
2023-06-21T06:05:17.500Z,96574.84
2023-06-21T06:07:44.501Z,96578.69
2023-06-21T06:10:11.428Z,96579.56
2023-06-21T06:12:38.464Z,96586.41
2023-06-21T06:15:06.494Z,96603.25
2023-06-21T06:17:33.397Z,96588.97
2023-06-21T06:20:05.660Z,96599.09
2023-06-21T06:22:36.668Z,96613.84
2023-06-21T06:25:04.629Z,96613.63
2023-06-21T06:27:31.536Z,96615.34
2023-06-21T06:29:59.050Z,96601.56
2023-06-21T06:32:28.414Z,96602.78
2023-06-21T06:34:55.725Z,96605.88
2023-06-21T06:37:30.610Z,96621.44
2023-06-21T06:39:59.556Z,96626.44
2023-06-21T06:42:26.543Z,96621.38
2023-06-21T06:44:54.258Z,96615.91
2023-06-21T06:47:21.328Z,96622.81
2023-06-21T06:49:48.237Z,96626.63
2023-06-21T06:52:15.134Z,96618.91
2023-06-21T06:54:42.076Z,96633.34
2023-06-21T06:57:15.855Z,96635.88
2023-06-21T06:59:50.330Z,96648.97
2023-06-21T07:02:17.462Z,96640.66
2023-06-21T07:04:44.374Z,96644.22
2023-06-21T07:07:11.321Z,96648.88
2023-06-21T07:09:39.040Z,96649.00
2023-06-21T07:12:06.860Z,96655.47
2023-06-21T07:14:33.739Z,96653.47
2023-06-21T07:17:00.742Z,96656.31
2023-06-21T07:19:27.601Z,96655.53
2023-06-21T07:21:54.508Z,96657.28
2023-06-21T07:24:21.471Z,96649.91
2023-06-21T07:26:48.476Z,96644.06
2023-06-21T07:29:15.466Z,96639.22
2023-06-21T07:31:42.384Z,96637.94
2023-06-21T07:34:10.730Z,96638.22
2023-06-21T07:36:39.967Z,96633.81
2023-06-21T07:39:09.357Z,96633.19
2023-06-21T07:41:36.488Z,96629.47
2023-06-21T07:44:03.661Z,96627.56
2023-06-21T07:46:30.717Z,96620.63
2023-06-21T07:48:57.590Z,96631.56
2023-06-21T07:51:24.495Z,96637.38
2023-06-21T07:53:51.364Z,96629.91
2023-06-21T07:56:18.360Z,96623.72
2023-06-21T07:58:45.389Z,96635.19
2023-06-21T08:01:13.480Z,96621.19
2023-06-21T08:03:41.588Z,96626.22
2023-06-21T08:06:08.660Z,96623.88
2023-06-21T08:08:35.546Z,96625.13
2023-06-21T08:11:02.516Z,96628.72
2023-06-21T08:13:30.550Z,96632.06
2023-06-21T08:15:57.532Z,96617.47
2023-06-21T08:18:24.394Z,96623.72
2023-06-21T08:20:51.290Z,96623.91
2023-06-21T08:23:18.181Z,96618.44
2023-06-21T08:25:46.866Z,96616.63
2023-06-21T08:28:13.886Z,96613.31
2023-06-21T08:30:40.754Z,96615.00
2023-06-21T08:33:07.690Z,96610.88
2023-06-21T08:35:34.659Z,96614.31
2023-06-21T08:38:11.743Z,96622.56
2023-06-21T08:40:48.419Z,96620.06
2023-06-21T08:43:15.451Z,96622.41
2023-06-21T08:45:42.956Z,96609.50
2023-06-21T08:48:10.839Z,96622.59
2023-06-21T08:50:39.242Z,96611.84
2023-06-21T08:53:08.421Z,96617.31
2023-06-21T08:55:37.300Z,96622.66
2023-06-21T08:58:17.409Z,96620.66
2023-06-21T09:00:52.771Z,96616.75
2023-06-21T09:03:29.681Z,96619.72
2023-06-21T09:06:04.466Z,96617.84
2023-06-21T09:08:35.761Z,96621.94
2023-06-21T09:11:03.760Z,96625.53
2023-06-21T09:13:35.375Z,96622.63
2023-06-21T09:16:04.195Z,96634.28
2023-06-21T09:18:37.205Z,96633.84
2023-06-21T09:21:05.814Z,96628.84
2023-06-21T09:23:32.803Z,96638.66
2023-06-21T09:25:59.782Z,96644.53
2023-06-21T09:28:26.857Z,96650.84
2023-06-21T09:30:53.790Z,96648.97
2023-06-21T09:33:20.936Z,96648.97
2023-06-21T09:35:47.983Z,96642.50
2023-06-21T09:38:29.501Z,96641.53
2023-06-21T09:40:56.821Z,96630.09
2023-06-21T09:43:24.190Z,96627.91
2023-06-21T09:46:13.125Z,96614.66
2023-06-21T09:48:41.530Z,96605.63
2023-06-21T09:51:12.009Z,96594.59
2023-06-21T09:53:42.867Z,96581.78
2023-06-21T09:56:10.387Z,96566.81
2023-06-21T09:58:41.692Z,96574.50
2023-06-21T10:01:09.171Z,96590.94
2023-06-21T10:03:36.620Z,96593.78
2023-06-21T10:06:04.619Z,96603.00
2023-06-21T10:08:37.222Z,96611.59
2023-06-21T10:11:04.824Z,96627.13
2023-06-21T10:13:38.665Z,96648.63
2023-06-21T10:16:06.240Z,96657.59
2023-06-21T10:18:35.309Z,96670.56
2023-06-21T10:21:04.975Z,96682.72
2023-06-21T10:23:35.569Z,96700.50
2023-06-21T10:26:06.415Z,96722.44
2023-06-21T10:28:38.094Z,96746.34
2023-06-21T10:31:05.718Z,96761.75
2023-06-21T10:33:35.355Z,96786.25
2023-06-21T10:36:04.444Z,96802.41
2023-06-21T10:38:49.195Z,96810.44
2023-06-21T10:41:16.731Z,96833.09
2023-06-21T10:43:45.938Z,96869.47
2023-06-21T10:46:13.800Z,96920.69
2023-06-21T10:48:41.661Z,96903.13
2023-06-21T10:51:11.354Z,96808.88
2023-06-21T10:53:39.745Z,96852.25
2023-06-21T10:56:06.838Z,96848.84
2023-06-21T10:58:33.840Z,96809.31
2023-06-21T11:01:01.701Z,96823.06
2023-06-21T11:03:29.038Z,96851.38
2023-06-21T11:06:40.011Z,96858.13
2023-06-21T11:09:13.764Z,96837.50
2023-06-21T11:11:53.743Z,96818.41
2023-06-21T11:14:31.554Z,96815.34
2023-06-21T11:17:16.292Z,96805.50
2023-06-21T11:19:48.641Z,96809.25
2023-06-21T11:22:18.357Z,96809.16
2023-06-21T11:24:58.866Z,96804.78
2023-06-21T11:27:26.842Z,96818.31
2023-06-21T11:30:04.880Z,96805.06
2023-06-21T11:32:31.903Z,96823.63
2023-06-21T11:35:01.773Z,96807.38
2023-06-21T11:37:46.086Z,96799.16
2023-06-21T11:40:16.605Z,96802.97
2023-06-21T11:42:46.999Z,96815.19
2023-06-21T11:45:21.030Z,96801.78
2023-06-21T11:48:09.787Z,96796.97
2023-06-21T11:50:42.308Z,96784.72
2023-06-21T11:53:31.577Z,96790.44
2023-06-21T11:56:03.307Z,96787.47
2023-06-21T11:58:30.562Z,96780.69
2023-06-21T12:00:58.227Z,96785.09
2023-06-21T12:03:28.769Z,96787.41
2023-06-21T12:05:58.319Z,96781.56
2023-06-21T12:08:28.876Z,96779.22
2023-06-21T12:11:08.617Z,96776.09
2023-06-21T12:13:37.131Z,96776.31
2023-06-21T12:16:06.937Z,96768.22
2023-06-21T12:18:37.384Z,96771.81
2023-06-21T12:21:08.257Z,96775.16
2023-06-21T12:23:35.322Z,96768.72
2023-06-21T12:26:07.325Z,96762.97
2023-06-21T12:28:35.729Z,96766.25
2023-06-21T12:31:04.832Z,96765.19
2023-06-21T12:33:37.222Z,96771.88
2023-06-21T12:36:25.174Z,96773.28
2023-06-21T12:39:04.321Z,96765.63
2023-06-21T12:41:33.629Z,96772.03
2023-06-21T12:44:27.140Z,96755.28
2023-06-21T12:46:55.008Z,96751.22
2023-06-21T12:49:21.970Z,96751.41
2023-06-21T12:51:49.419Z,96749.22
2023-06-21T12:54:20.966Z,96746.72
2023-06-21T12:56:59.833Z,96756.22
2023-06-21T12:59:28.090Z,96754.91
2023-06-21T13:01:57.207Z,96745.00
2023-06-21T13:04:24.485Z,96744.41
2023-06-21T13:06:51.634Z,96746.19
2023-06-21T13:09:18.759Z,96745.28
2023-06-21T13:11:46.967Z,96746.22
2023-06-21T13:14:13.948Z,96750.00
2023-06-21T13:16:40.826Z,96749.19
2023-06-21T13:19:08.464Z,96741.47
2023-06-21T13:21:35.572Z,96742.63
2023-06-21T13:24:04.008Z,96735.88
2023-06-21T13:26:31.062Z,96733.47
2023-06-21T13:28:58.050Z,96734.66
2023-06-21T13:31:25.622Z,96741.78
2023-06-21T13:33:54.430Z,96745.91
2023-06-21T13:36:21.599Z,96738.28
2023-06-21T13:38:48.491Z,96739.09
2023-06-21T13:41:15.402Z,96730.63
2023-06-21T13:43:42.376Z,96722.63
2023-06-21T13:46:09.394Z,96723.41
2023-06-21T13:48:36.465Z,96720.03
2023-06-21T13:51:03.569Z,96711.38
2023-06-21T13:53:30.527Z,96719.69
2023-06-21T13:55:58.205Z,96720.41
2023-06-21T13:58:26.837Z,96713.22
2023-06-21T14:00:53.892Z,96714.25
2023-06-21T14:03:20.956Z,96708.25
2023-06-21T14:05:47.997Z,96708.84
2023-06-21T14:08:14.877Z,96706.03
2023-06-21T14:10:41.783Z,96706.31
2023-06-21T14:13:08.679Z,96697.84
2023-06-21T14:15:35.676Z,96697.88
2023-06-21T14:18:04.555Z,96697.88
2023-06-21T14:20:32.267Z,96704.34
2023-06-21T14:22:59.724Z,96691.94
2023-06-21T14:25:26.731Z,96685.66
2023-06-21T14:27:53.669Z,96680.16
2023-06-21T14:30:21.268Z,96684.41
2023-06-21T14:32:48.639Z,96677.63
2023-06-21T14:35:15.972Z,96671.22
2023-06-21T14:37:45.052Z,96666.50
2023-06-21T14:40:12.468Z,96668.81
2023-06-21T14:42:39.570Z,96665.59
2023-06-21T14:45:07.027Z,96667.66
2023-06-21T14:47:33.983Z,96658.75
2023-06-21T14:50:04.106Z,96661.94
2023-06-21T14:52:32.634Z,96671.41
2023-06-21T14:54:59.661Z,96685.47
2023-06-21T14:57:26.577Z,96686.00
2023-06-21T14:59:53.637Z,96687.63
2023-06-21T15:02:20.672Z,96687.28
2023-06-21T15:04:47.634Z,96710.72
2023-06-21T15:07:19.130Z,96708.91
2023-06-21T15:09:47.160Z,96723.06
2023-06-21T15:12:14.387Z,96724.91
2023-06-21T15:14:41.471Z,96729.34
2023-06-21T15:17:08.549Z,96749.16
2023-06-21T15:19:35.536Z,96758.97
2023-06-21T15:22:02.615Z,96771.06
2023-06-21T15:24:29.462Z,96783.69
2023-06-21T15:26:56.361Z,96777.63
2023-06-21T15:29:23.342Z,96791.94
2023-06-21T15:31:50.249Z,96796.69
2023-06-21T15:34:17.227Z,96801.75
2023-06-21T15:36:45.014Z,96785.72
2023-06-21T15:39:12.143Z,96789.59
2023-06-21T15:41:39.557Z,96772.94
2023-06-21T15:44:06.799Z,96758.56
2023-06-21T15:46:34.401Z,96763.56
2023-06-21T15:49:01.985Z,96765.63
2023-06-21T15:51:29.179Z,96762.66
2023-06-21T15:53:57.238Z,96768.94
2023-06-21T15:56:26.114Z,96772.97
2023-06-21T15:58:53.899Z,96773.53
2023-06-21T16:01:22.089Z,96773.75
2023-06-21T16:03:50.493Z,96780.50
2023-06-21T16:06:19.712Z,96784.16
2023-06-21T16:08:47.517Z,96783.16
2023-06-21T16:11:15.268Z,96785.56
2023-06-21T16:16:14.232Z,96768.81
2023-06-21T16:18:41.519Z,96766.56
2023-06-21T16:21:08.646Z,96767.75
2023-06-21T16:23:35.654Z,96778.59
2023-06-21T16:26:02.946Z,96772.84
2023-06-21T16:28:29.971Z,96780.19
2023-06-21T16:30:56.948Z,96772.75
2023-06-21T16:33:23.856Z,96778.00
2023-06-21T16:35:50.921Z,96765.59
2023-06-21T16:38:19.791Z,96773.94
2023-06-21T16:40:47.171Z,96763.41
2023-06-21T16:43:14.860Z,96773.44
2023-06-21T16:45:41.826Z,96769.78
2023-06-21T16:48:08.887Z,96776.19
2023-06-21T16:50:35.998Z,96768.25
2023-06-21T16:53:03.266Z,96766.53
2023-06-21T16:55:30.768Z,96767.72
2023-06-21T16:57:58.116Z,96768.72
2023-06-21T17:00:25.139Z,96775.03
2023-06-21T17:02:54.457Z,96768.19
2023-06-21T17:05:25.641Z,96772.13
2023-06-21T17:07:53.293Z,96766.25
2023-06-21T17:10:22.015Z,96765.69
2023-06-21T17:12:49.325Z,96768.59
2023-06-21T17:15:16.368Z,96769.19
2023-06-21T17:17:44.622Z,96771.97
2023-06-21T17:20:12.237Z,96768.38
2023-06-21T17:22:39.335Z,96757.53
2023-06-21T17:25:07.034Z,96754.81
2023-06-21T17:27:34.026Z,96748.72
2023-06-21T17:30:01.280Z,96751.72
2023-06-21T17:32:28.353Z,96747.56
2023-06-21T17:34:55.354Z,96740.88
2023-06-21T17:37:22.414Z,96742.63
2023-06-21T17:39:49.375Z,96740.22
2023-06-21T17:42:16.491Z,96745.50
2023-06-21T17:44:43.744Z,96747.78
2023-06-21T17:47:11.665Z,96744.75
2023-06-21T17:49:38.709Z,96748.69
2023-06-21T17:52:06.203Z,96756.47
2023-06-21T17:54:33.609Z,96757.50
2023-06-21T17:57:00.768Z,96750.75
2023-06-21T17:59:27.681Z,96744.31
2023-06-21T18:01:55.609Z,96726.09
2023-06-21T18:04:22.740Z,96733.38
2023-06-21T18:06:49.856Z,96733.03
2023-06-21T18:09:16.828Z,96731.66
2023-06-21T18:11:44.567Z,96733.50
2023-06-21T18:14:11.603Z,96730.50
2023-06-21T18:16:40.730Z,96726.53
2023-06-21T18:19:07.642Z,96733.72
2023-06-21T18:21:34.605Z,96722.31
2023-06-21T18:24:13.433Z,96704.59
2023-06-21T18:26:40.379Z,96677.72
2023-06-21T18:29:07.267Z,96643.09
2023-06-21T18:31:34.187Z,96610.47
2023-06-21T18:34:01.415Z,96586.72
2023-06-21T18:36:28.471Z,96626.50
2023-06-21T18:38:56.220Z,96699.25
2023-06-21T18:41:23.328Z,96724.00
2023-06-21T18:43:50.935Z,96733.84
2023-06-21T18:46:17.965Z,96717.41
2023-06-21T18:48:50.045Z,96723.56
2023-06-21T18:51:17.100Z,96722.00
2023-06-21T18:53:44.021Z,96726.97
2023-06-21T18:56:10.991Z,96723.78
2023-06-21T18:58:38.561Z,96721.75
2023-06-21T19:01:05.557Z,96723.94
2023-06-21T19:03:32.584Z,96725.72
2023-06-21T19:05:59.617Z,96723.66
2023-06-21T19:08:26.567Z,96730.13
2023-06-21T19:10:53.489Z,96734.41
2023-06-21T19:13:20.529Z,96757.16
2023-06-21T19:15:47.384Z,96766.91
2023-06-21T19:18:14.449Z,96762.44
2023-06-21T19:20:41.356Z,96763.47
2023-06-21T19:23:08.237Z,96774.34
2023-06-21T19:25:35.189Z,96790.06
2023-06-21T19:28:02.080Z,96788.78
2023-06-21T19:30:29.271Z,96802.56
2023-06-21T19:32:56.562Z,96794.56
2023-06-21T19:35:23.519Z,96801.41
2023-06-21T19:37:50.437Z,96812.06
2023-06-21T19:40:17.457Z,96808.84
2023-06-21T19:42:47.526Z,96812.06
2023-06-21T19:45:15.084Z,96809.47
2023-06-21T19:47:42.549Z,96814.91
2023-06-21T19:50:10.488Z,96814.13
2023-06-21T19:52:37.528Z,96811.25
2023-06-21T19:55:04.985Z,96814.00
2023-06-21T19:57:32.327Z,96811.06
2023-06-21T19:59:59.646Z,96817.81
2023-06-21T20:02:26.744Z,96816.72
2023-06-21T20:04:57.298Z,96826.44
2023-06-21T20:07:24.907Z,96821.09
2023-06-21T20:09:53.300Z,96831.34
2023-06-21T20:12:20.194Z,96836.75
2023-06-21T20:14:47.201Z,96835.66
2023-06-21T20:17:14.126Z,96830.28
2023-06-21T20:19:41.097Z,96829.25
2023-06-21T20:22:08.001Z,96811.00
2023-06-21T20:24:34.940Z,96802.16
2023-06-21T20:27:01.914Z,96807.50
2023-06-21T20:29:28.798Z,96802.94
2023-06-21T20:31:55.703Z,96805.09
2023-06-21T20:34:23.366Z,96804.00
2023-06-21T20:36:50.321Z,96807.22
2023-06-21T20:39:18.676Z,96806.69
2023-06-21T20:41:47.047Z,96815.56
2023-06-21T20:44:16.337Z,96812.63
2023-06-21T20:46:45.918Z,96813.69
2023-06-21T20:49:13.242Z,96813.19
2023-06-21T20:51:40.660Z,96811.84
2023-06-21T20:54:12.313Z,96804.63
2023-06-21T20:56:40.525Z,96804.63
2023-06-21T20:59:07.959Z,96799.75
2023-06-21T21:01:39.528Z,96789.03
2023-06-21T21:04:08.441Z,96782.06
2023-06-21T21:06:36.596Z,96767.03
2023-06-21T21:09:04.152Z,96777.78
2023-06-21T21:11:31.196Z,96779.38
2023-06-21T21:14:01.300Z,96787.41
2023-06-21T21:16:28.387Z,96784.72
2023-06-21T21:18:55.415Z,96785.25
2023-06-21T21:21:22.789Z,96780.97
2023-06-21T21:23:51.540Z,96782.03
2023-06-21T21:26:18.575Z,96792.22
2023-06-21T21:28:45.447Z,96783.63
2023-06-21T21:31:12.417Z,96786.31
2023-06-21T21:33:39.271Z,96790.63
2023-06-21T21:36:06.806Z,96772.91
2023-06-21T21:38:33.761Z,96785.78
2023-06-21T21:41:00.685Z,96784.97
2023-06-21T21:43:27.564Z,96783.63
2023-06-21T21:45:54.460Z,96775.84
2023-06-21T21:48:21.403Z,96774.75
2023-06-21T21:50:48.366Z,96765.13
2023-06-21T21:53:15.616Z,96748.75
2023-06-21T21:55:43.291Z,96742.03
2023-06-21T21:58:11.775Z,96736.94
2023-06-21T22:00:38.653Z,96738.28
2023-06-21T22:03:05.652Z,96754.09
2023-06-21T22:05:32.734Z,96750.91
2023-06-21T22:07:59.640Z,96739.63
2023-06-21T22:10:37.684Z,96733.19
2023-06-21T22:13:05.869Z,96733.22
2023-06-21T22:15:32.808Z,96733.72
2023-06-21T22:18:01.229Z,96725.16
2023-06-21T22:20:30.560Z,96723.53
2023-06-21T22:22:57.871Z,96716.28
2023-06-21T22:25:24.783Z,96722.97
2023-06-21T22:27:51.664Z,96717.63
2023-06-21T22:30:18.883Z,96710.38
2023-06-21T22:32:45.915Z,96712.25
2023-06-21T22:35:12.823Z,96707.44
2023-06-21T22:37:39.954Z,96703.13
2023-06-21T22:40:08.263Z,96696.69
2023-06-21T22:42:35.474Z,96703.69
2023-06-21T22:45:02.474Z,96708.00
2023-06-21T22:47:29.408Z,96701.53
2023-06-21T22:49:56.898Z,96695.63
2023-06-21T22:52:24.764Z,96701.81
2023-06-21T22:54:51.876Z,96694.28
2023-06-21T22:57:18.923Z,96692.41
2023-06-21T22:59:46.000Z,96682.75
2023-06-21T23:02:13.005Z,96685.97
2023-06-21T23:04:40.320Z,96677.91
2023-06-21T23:07:07.622Z,96677.91
2023-06-21T23:09:34.553Z,96681.16
2023-06-21T23:12:01.407Z,96672.28
2023-06-21T23:14:29.106Z,96674.16
2023-06-21T23:16:56.764Z,96666.38
2023-06-21T23:19:24.096Z,96671.50
2023-06-21T23:21:52.131Z,96682.22
2023-06-21T23:24:19.049Z,96677.66
2023-06-21T23:26:49.676Z,96676.84
2023-06-21T23:29:16.823Z,96670.41
2023-06-21T23:31:43.888Z,96668.25
2023-06-21T23:34:12.503Z,96681.59
2023-06-21T23:36:41.775Z,96680.78
2023-06-21T23:39:09.772Z,96668.47
2023-06-21T23:41:37.812Z,96660.66
2023-06-21T23:44:06.247Z,96662.28
2023-06-21T23:46:34.052Z,96656.38
2023-06-21T23:49:03.297Z,96660.13
2023-06-21T23:51:34.434Z,96659.59
2023-06-21T23:54:01.331Z,96655.81
2023-06-21T23:56:28.801Z,96651.00
2023-06-21T23:58:55.930Z,96634.38
